sensor_id;sensor_type;location;lat;lon;timestamp;temperature;humidity
1347;DHT22;667;48.796;9.480;2022-09-09T00:01:53;17.40;75.80
1347;DHT22;667;48.796;9.480;2022-09-09T00:04:34;17.40;75.90
1347;DHT22;667;48.796;9.480;2022-09-09T00:07:05;17.30;75.90
1347;DHT22;667;48.796;9.480;2022-09-09T00:09:39;17.30;75.90
1347;DHT22;667;48.796;9.480;2022-09-09T00:13:01;17.30;76.00
1347;DHT22;667;48.796;9.480;2022-09-09T00:15:18;17.30;75.90
1347;DHT22;667;48.796;9.480;2022-09-09T00:17:49;17.30;76.10
1347;DHT22;667;48.796;9.480;2022-09-09T00:23:35;17.20;76.20
1347;DHT22;667;48.796;9.480;2022-09-09T00:31:57;17.20;76.50
1347;DHT22;667;48.796;9.480;2022-09-09T00:34:27;17.20;76.70
1347;DHT22;667;48.796;9.480;2022-09-09T00:36:54;17.20;76.70
1347;DHT22;667;48.796;9.480;2022-09-09T00:39:41;17.10;76.70
1347;DHT22;667;48.796;9.480;2022-09-09T00:42:17;17.20;76.70
1347;DHT22;667;48.796;9.480;2022-09-09T00:47:56;17.10;76.70
1347;DHT22;667;48.796;9.480;2022-09-09T00:56:14;17.10;77.10
1347;DHT22;667;48.796;9.480;2022-09-09T00:58:54;17.10;77.10
1347;DHT22;667;48.796;9.480;2022-09-09T01:01:24;17.20;77.50
1347;DHT22;667;48.796;9.480;2022-09-09T01:03:54;17.20;77.60
1347;DHT22;667;48.796;9.480;2022-09-09T01:06:30;17.20;77.60
1347;DHT22;667;48.796;9.480;2022-09-09T01:09:22;17.20;77.60
1347;DHT22;667;48.796;9.480;2022-09-09T01:12:15;17.20;77.70
1347;DHT22;667;48.796;9.480;2022-09-09T01:14:49;17.20;77.80
1347;DHT22;667;48.796;9.480;2022-09-09T01:17:28;17.20;77.80
1347;DHT22;667;48.796;9.480;2022-09-09T01:23:11;17.20;77.90
1347;DHT22;667;48.796;9.480;2022-09-09T01:28:13;17.20;78.20
1347;DHT22;667;48.796;9.480;2022-09-09T01:30:42;17.20;78.20
1347;DHT22;667;48.796;9.480;2022-09-09T01:33:13;17.20;78.20
1347;DHT22;667;48.796;9.480;2022-09-09T01:35:43;17.30;78.50
1347;DHT22;667;48.796;9.480;2022-09-09T01:38:12;17.30;78.50
1347;DHT22;667;48.796;9.480;2022-09-09T01:40:38;17.30;78.40
1347;DHT22;667;48.796;9.480;2022-09-09T01:43:04;17.30;78.40
1347;DHT22;667;48.796;9.480;2022-09-09T01:45:30;17.30;78.50
1347;DHT22;667;48.796;9.480;2022-09-09T01:47:56;17.30;78.60
1347;DHT22;667;48.796;9.480;2022-09-09T01:50:22;17.30;78.70
1347;DHT22;667;48.796;9.480;2022-09-09T01:52:51;17.30;78.50
1347;DHT22;667;48.796;9.480;2022-09-09T01:55:28;17.30;78.40
1347;DHT22;667;48.796;9.480;2022-09-09T02:00:55;17.30;78.90
1347;DHT22;667;48.796;9.480;2022-09-09T02:11:15;17.30;79.00
1347;DHT22;667;48.796;9.480;2022-09-09T02:13:43;17.20;78.90
1347;DHT22;667;48.796;9.480;2022-09-09T02:16:21;17.20;78.90
1347;DHT22;667;48.796;9.480;2022-09-09T02:19:14;17.20;78.90
1347;DHT22;667;48.796;9.480;2022-09-09T02:21:45;17.20;78.90
1347;DHT22;667;48.796;9.480;2022-09-09T02:24:13;17.20;78.80
1347;DHT22;667;48.796;9.480;2022-09-09T02:26:42;17.20;78.80
1347;DHT22;667;48.796;9.480;2022-09-09T02:29:16;17.20;78.50
1347;DHT22;667;48.796;9.480;2022-09-09T02:31:45;17.20;78.60
1347;DHT22;667;48.796;9.480;2022-09-09T02:34:13;17.20;78.50
1347;DHT22;667;48.796;9.480;2022-09-09T02:36:40;17.10;78.00
1347;DHT22;667;48.796;9.480;2022-09-09T02:39:08;17.10;78.00
1347;DHT22;667;48.796;9.480;2022-09-09T02:41:38;17.10;78.00
1347;DHT22;667;48.796;9.480;2022-09-09T02:44:16;17.00;77.70
1347;DHT22;667;48.796;9.480;2022-09-09T02:52:25;17.00;78.30
1347;DHT22;667;48.796;9.480;2022-09-09T02:54:57;16.90;78.30
1347;DHT22;667;48.796;9.480;2022-09-09T02:57:27;16.90;78.40
1347;DHT22;667;48.796;9.480;2022-09-09T02:59:53;16.90;78.40
1347;DHT22;667;48.796;9.480;2022-09-09T03:02:22;16.90;78.20
1347;DHT22;667;48.796;9.480;2022-09-09T03:04:47;16.80;78.00
1347;DHT22;667;48.796;9.480;2022-09-09T03:07:17;16.80;77.90
1347;DHT22;667;48.796;9.480;2022-09-09T03:09:43;16.80;78.00
1347;DHT22;667;48.796;9.480;2022-09-09T03:12:10;16.80;78.10
1347;DHT22;667;48.796;9.480;2022-09-09T03:14:37;16.80;77.90
1347;DHT22;667;48.796;9.480;2022-09-09T03:17:04;16.80;77.90
1347;DHT22;667;48.796;9.480;2022-09-09T03:19:30;16.80;77.80
1347;DHT22;667;48.796;9.480;2022-09-09T03:21:55;16.70;77.50
1347;DHT22;667;48.796;9.480;2022-09-09T03:24:21;16.70;77.70
1347;DHT22;667;48.796;9.480;2022-09-09T03:26:48;16.70;77.70
1347;DHT22;667;48.796;9.480;2022-09-09T03:29:13;16.70;78.00
1347;DHT22;667;48.796;9.480;2022-09-09T03:31:40;16.70;78.30
1347;DHT22;667;48.796;9.480;2022-09-09T03:34:06;16.70;78.50
1347;DHT22;667;48.796;9.480;2022-09-09T03:36:32;16.70;78.60
1347;DHT22;667;48.796;9.480;2022-09-09T03:38:58;16.70;78.70
1347;DHT22;667;48.796;9.480;2022-09-09T03:41:25;16.70;78.80
1347;DHT22;667;48.796;9.480;2022-09-09T03:43:52;16.70;78.70
1347;DHT22;667;48.796;9.480;2022-09-09T03:46:19;16.70;78.60
1347;DHT22;667;48.796;9.480;2022-09-09T03:48:45;16.70;78.40
1347;DHT22;667;48.796;9.480;2022-09-09T03:51:10;16.70;78.40
1347;DHT22;667;48.796;9.480;2022-09-09T03:53:36;16.70;78.40
1347;DHT22;667;48.796;9.480;2022-09-09T03:56:04;16.70;78.50
1347;DHT22;667;48.796;9.480;2022-09-09T03:58:36;16.70;78.60
1347;DHT22;667;48.796;9.480;2022-09-09T04:03:30;16.70;78.90
1347;DHT22;667;48.796;9.480;2022-09-09T04:05:58;16.70;78.90
1347;DHT22;667;48.796;9.480;2022-09-09T04:08:24;16.70;79.10
1347;DHT22;667;48.796;9.480;2022-09-09T04:10:50;16.70;79.20
1347;DHT22;667;48.796;9.480;2022-09-09T04:13:17;16.70;79.20
1347;DHT22;667;48.796;9.480;2022-09-09T04:15:44;16.70;79.30
1347;DHT22;667;48.796;9.480;2022-09-09T04:18:15;16.70;79.30
1347;DHT22;667;48.796;9.480;2022-09-09T04:20:41;16.70;79.60
1347;DHT22;667;48.796;9.480;2022-09-09T04:23:08;16.70;79.60
1347;DHT22;667;48.796;9.480;2022-09-09T04:25:34;16.70;79.70
1347;DHT22;667;48.796;9.480;2022-09-09T04:27:59;16.70;79.70
1347;DHT22;667;48.796;9.480;2022-09-09T04:30:25;16.70;79.40
1347;DHT22;667;48.796;9.480;2022-09-09T04:32:52;16.70;79.30
1347;DHT22;667;48.796;9.480;2022-09-09T04:35:18;16.70;79.20
1347;DHT22;667;48.796;9.480;2022-09-09T04:37:45;16.70;79.30
1347;DHT22;667;48.796;9.480;2022-09-09T04:40:11;16.70;79.30
1347;DHT22;667;48.796;9.480;2022-09-09T04:42:36;16.70;79.30
1347;DHT22;667;48.796;9.480;2022-09-09T04:45:03;16.70;79.20
1347;DHT22;667;48.796;9.480;2022-09-09T04:47:28;16.80;79.40
1347;DHT22;667;48.796;9.480;2022-09-09T04:49:54;16.80;79.30
1347;DHT22;667;48.796;9.480;2022-09-09T04:52:20;16.80;79.30
1347;DHT22;667;48.796;9.480;2022-09-09T04:54:46;16.80;79.20
1347;DHT22;667;48.796;9.480;2022-09-09T04:57:12;16.80;79.30
1347;DHT22;667;48.796;9.480;2022-09-09T04:59:38;16.80;79.50
1347;DHT22;667;48.796;9.480;2022-09-09T05:02:05;16.80;79.60
1347;DHT22;667;48.796;9.480;2022-09-09T05:04:30;16.80;79.80
1347;DHT22;667;48.796;9.480;2022-09-09T05:06:56;16.80;79.80
1347;DHT22;667;48.796;9.480;2022-09-09T05:09:21;16.80;79.80
1347;DHT22;667;48.796;9.480;2022-09-09T05:11:47;16.80;79.70
1347;DHT22;667;48.796;9.480;2022-09-09T05:14:13;16.80;79.80
1347;DHT22;667;48.796;9.480;2022-09-09T05:16:40;16.80;80.00
1347;DHT22;667;48.796;9.480;2022-09-09T05:19:05;16.90;80.90
1347;DHT22;667;48.796;9.480;2022-09-09T05:21:33;16.90;80.20
1347;DHT22;667;48.796;9.480;2022-09-09T05:23:59;16.90;80.20
1347;DHT22;667;48.796;9.480;2022-09-09T05:26:25;17.00;80.60
1347;DHT22;667;48.796;9.480;2022-09-09T05:28:51;17.00;80.80
1347;DHT22;667;48.796;9.480;2022-09-09T05:31:18;17.00;80.70
1347;DHT22;667;48.796;9.480;2022-09-09T05:33:45;17.00;80.80
1347;DHT22;667;48.796;9.480;2022-09-09T05:36:13;17.00;80.70
1347;DHT22;667;48.796;9.480;2022-09-09T05:38:40;17.00;80.40
1347;DHT22;667;48.796;9.480;2022-09-09T05:41:06;17.00;80.50
1347;DHT22;667;48.796;9.480;2022-09-09T05:43:33;17.00;81.00
1347;DHT22;667;48.796;9.480;2022-09-09T05:48:30;17.00;81.30
1347;DHT22;667;48.796;9.480;2022-09-09T05:50:56;17.10;81.60
1347;DHT22;667;48.796;9.480;2022-09-09T05:53:22;17.10;81.60
1347;DHT22;667;48.796;9.480;2022-09-09T05:55:47;17.20;81.70
1347;DHT22;667;48.796;9.480;2022-09-09T05:58:13;17.20;81.40
1347;DHT22;667;48.796;9.480;2022-09-09T06:00:40;17.30;81.40
1347;DHT22;667;48.796;9.480;2022-09-09T06:03:06;17.30;81.50
1347;DHT22;667;48.796;9.480;2022-09-09T06:05:31;17.30;81.20
1347;DHT22;667;48.796;9.480;2022-09-09T06:07:58;17.40;80.80
1347;DHT22;667;48.796;9.480;2022-09-09T06:10:24;17.40;80.70
1347;DHT22;667;48.796;9.480;2022-09-09T06:12:52;17.40;80.40
1347;DHT22;667;48.796;9.480;2022-09-09T06:15:18;17.40;80.20
1347;DHT22;667;48.796;9.480;2022-09-09T06:17:43;17.50;79.80
1347;DHT22;667;48.796;9.480;2022-09-09T06:20:10;17.50;79.60
1347;DHT22;667;48.796;9.480;2022-09-09T06:22:36;17.60;80.30
1347;DHT22;667;48.796;9.480;2022-09-09T06:25:04;17.60;79.90
1347;DHT22;667;48.796;9.480;2022-09-09T06:27:30;17.60;79.90
1347;DHT22;667;48.796;9.480;2022-09-09T06:29:56;17.70;79.80
1347;DHT22;667;48.796;9.480;2022-09-09T06:32:21;17.70;79.80
1347;DHT22;667;48.796;9.480;2022-09-09T06:34:47;17.70;80.10
1347;DHT22;667;48.796;9.480;2022-09-09T06:37:14;17.80;80.20
1347;DHT22;667;48.796;9.480;2022-09-09T06:39:40;17.80;79.60
1347;DHT22;667;48.796;9.480;2022-09-09T06:42:06;17.90;79.30
1347;DHT22;667;48.796;9.480;2022-09-09T06:44:33;17.90;79.20
1347;DHT22;667;48.796;9.480;2022-09-09T06:46:59;17.90;78.60
1347;DHT22;667;48.796;9.480;2022-09-09T06:49:25;18.00;78.50
1347;DHT22;667;48.796;9.480;2022-09-09T06:51:50;18.00;78.30
1347;DHT22;667;48.796;9.480;2022-09-09T06:54:17;18.10;78.20
1347;DHT22;667;48.796;9.480;2022-09-09T06:56:43;18.10;77.80
1347;DHT22;667;48.796;9.480;2022-09-09T06:59:11;18.20;77.80
1347;DHT22;667;48.796;9.480;2022-09-09T07:01:42;18.20;77.70
1347;DHT22;667;48.796;9.480;2022-09-09T07:04:09;18.20;77.20
1347;DHT22;667;48.796;9.480;2022-09-09T07:06:44;18.30;77.00
1347;DHT22;667;48.796;9.480;2022-09-09T07:09:12;18.30;76.60
1347;DHT22;667;48.796;9.480;2022-09-09T07:11:49;18.40;76.60
1347;DHT22;667;48.796;9.480;2022-09-09T07:14:16;18.40;76.40
1347;DHT22;667;48.796;9.480;2022-09-09T07:16:43;18.50;76.50
1347;DHT22;667;48.796;9.480;2022-09-09T07:19:09;18.50;76.40
1347;DHT22;667;48.796;9.480;2022-09-09T07:21:34;18.60;76.50
1347;DHT22;667;48.796;9.480;2022-09-09T07:24:00;18.70;76.40
1347;DHT22;667;48.796;9.480;2022-09-09T07:26:29;18.70;76.10
1347;DHT22;667;48.796;9.480;2022-09-09T07:28:55;18.80;75.90
1347;DHT22;667;48.796;9.480;2022-09-09T07:31:32;18.90;75.90
1347;DHT22;667;48.796;9.480;2022-09-09T07:33:59;19.00;76.10
1347;DHT22;667;48.796;9.480;2022-09-09T07:36:31;19.10;75.80
1347;DHT22;667;48.796;9.480;2022-09-09T07:39:06;19.20;75.50
1347;DHT22;667;48.796;9.480;2022-09-09T07:41:40;19.30;75.20
1347;DHT22;667;48.796;9.480;2022-09-09T07:44:17;19.30;74.60
1347;DHT22;667;48.796;9.480;2022-09-09T07:46:44;19.30;74.10
1347;DHT22;667;48.796;9.480;2022-09-09T07:49:10;19.40;73.80
1347;DHT22;667;48.796;9.480;2022-09-09T07:51:39;19.50;73.80
1347;DHT22;667;48.796;9.480;2022-09-09T07:54:09;19.50;73.60
1347;DHT22;667;48.796;9.480;2022-09-09T07:56:35;19.60;73.60
1347;DHT22;667;48.796;9.480;2022-09-09T07:59:01;19.60;73.90
1347;DHT22;667;48.796;9.480;2022-09-09T08:01:35;19.70;74.00
1347;DHT22;667;48.796;9.480;2022-09-09T08:04:06;19.80;73.50
1347;DHT22;667;48.796;9.480;2022-09-09T08:06:38;19.80;72.90
1347;DHT22;667;48.796;9.480;2022-09-09T08:09:05;19.90;72.60
1347;DHT22;667;48.796;9.480;2022-09-09T08:11:31;19.90;72.60
1347;DHT22;667;48.796;9.480;2022-09-09T08:13:58;20.00;72.50
1347;DHT22;667;48.796;9.480;2022-09-09T08:16:27;20.00;72.40
1347;DHT22;667;48.796;9.480;2022-09-09T08:18:53;20.10;72.40
1347;DHT22;667;48.796;9.480;2022-09-09T08:21:29;20.20;71.00
1347;DHT22;667;48.796;9.480;2022-09-09T08:23:56;20.20;70.50
1347;DHT22;667;48.796;9.480;2022-09-09T08:26:24;20.30;70.90
1347;DHT22;667;48.796;9.480;2022-09-09T08:28:52;20.40;70.60
1347;DHT22;667;48.796;9.480;2022-09-09T08:31:21;20.50;70.70
1347;DHT22;667;48.796;9.480;2022-09-09T08:33:48;20.50;70.30
1347;DHT22;667;48.796;9.480;2022-09-09T08:36:20;20.70;69.40
1347;DHT22;667;48.796;9.480;2022-09-09T08:38:50;20.80;69.60
1347;DHT22;667;48.796;9.480;2022-09-09T08:50:03;21.20;68.30
1347;DHT22;667;48.796;9.480;2022-09-09T08:55:28;21.30;67.90
1347;DHT22;667;48.796;9.480;2022-09-09T08:58:08;21.40;68.40
1347;DHT22;667;48.796;9.480;2022-09-09T09:01:04;21.40;67.30
1347;DHT22;667;48.796;9.480;2022-09-09T09:11:54;21.50;67.20
1347;DHT22;667;48.796;9.480;2022-09-09T09:14:29;21.50;67.20
1347;DHT22;667;48.796;9.480;2022-09-09T09:19:24;21.70;67.80
1347;DHT22;667;48.796;9.480;2022-09-09T09:24:56;21.90;66.10
1347;DHT22;667;48.796;9.480;2022-09-09T09:27:35;22.00;65.40
1347;DHT22;667;48.796;9.480;2022-09-09T09:30:22;22.10;65.00
1347;DHT22;667;48.796;9.480;2022-09-09T09:35:23;22.40;64.30
1347;DHT22;667;48.796;9.480;2022-09-09T09:37:49;22.60;63.70
1347;DHT22;667;48.796;9.480;2022-09-09T09:40:17;22.70;62.60
1347;DHT22;667;48.796;9.480;2022-09-09T09:42:54;22.90;62.00
1347;DHT22;667;48.796;9.480;2022-09-09T09:45:34;23.00;60.70
1347;DHT22;667;48.796;9.480;2022-09-09T09:48:05;23.10;59.80
1347;DHT22;667;48.796;9.480;2022-09-09T09:50:32;23.30;59.00
1347;DHT22;667;48.796;9.480;2022-09-09T09:53:03;23.40;58.90
1347;DHT22;667;48.796;9.480;2022-09-09T09:55:31;23.60;59.20
1347;DHT22;667;48.796;9.480;2022-09-09T09:58:06;23.70;58.60
1347;DHT22;667;48.796;9.480;2022-09-09T10:00:32;23.90;58.70
1347;DHT22;667;48.796;9.480;2022-09-09T10:03:00;24.00;58.50
1347;DHT22;667;48.796;9.480;2022-09-09T10:05:30;24.10;56.50
1347;DHT22;667;48.796;9.480;2022-09-09T10:08:13;24.00;53.70
1347;DHT22;667;48.796;9.480;2022-09-09T10:19:32;23.70;51.30
1347;DHT22;667;48.796;9.480;2022-09-09T10:24:52;23.90;50.90
1347;DHT22;667;48.796;9.480;2022-09-09T10:30:16;24.20;51.80
1347;DHT22;667;48.796;9.480;2022-09-09T10:35:29;24.20;51.20
1347;DHT22;667;48.796;9.480;2022-09-09T10:43:01;24.40;52.30
1347;DHT22;667;48.796;9.480;2022-09-09T10:45:30;24.50;52.30
1347;DHT22;667;48.796;9.480;2022-09-09T10:53:12;24.40;51.20
1347;DHT22;667;48.796;9.480;2022-09-09T10:55:48;24.30;51.20
1347;DHT22;667;48.796;9.480;2022-09-09T10:58:29;24.20;51.90
1347;DHT22;667;48.796;9.480;2022-09-09T11:01:06;24.30;52.70
1347;DHT22;667;48.796;9.480;2022-09-09T11:03:36;24.40;53.60
1347;DHT22;667;48.796;9.480;2022-09-09T11:06:06;24.70;53.30
1347;DHT22;667;48.796;9.480;2022-09-09T11:08:38;24.80;52.30
1347;DHT22;667;48.796;9.480;2022-09-09T11:19:15;25.00;51.20
1347;DHT22;667;48.796;9.480;2022-09-09T11:21:48;25.00;51.40
1347;DHT22;667;48.796;9.480;2022-09-09T11:42:45;24.80;50.90
1347;DHT22;667;48.796;9.480;2022-09-09T11:45:33;24.70;50.20
1347;DHT22;667;48.796;9.480;2022-09-09T11:48:01;24.50;50.10
1347;DHT22;667;48.796;9.480;2022-09-09T11:50:35;24.40;50.80
1347;DHT22;667;48.796;9.480;2022-09-09T11:53:06;24.20;51.60
1347;DHT22;667;48.796;9.480;2022-09-09T11:55:41;24.10;52.30
1347;DHT22;667;48.796;9.480;2022-09-09T12:00:48;23.80;52.80
1347;DHT22;667;48.796;9.480;2022-09-09T12:03:47;23.60;52.70
1347;DHT22;667;48.796;9.480;2022-09-09T12:06:15;23.40;54.20
1347;DHT22;667;48.796;9.480;2022-09-09T12:08:46;23.10;56.80
1347;DHT22;667;48.796;9.480;2022-09-09T12:11:27;23.00;58.90
1347;DHT22;667;48.796;9.480;2022-09-09T12:13:58;22.80;60.60
1347;DHT22;667;48.796;9.480;2022-09-09T12:16:33;22.70;61.30
1347;DHT22;667;48.796;9.480;2022-09-09T12:24:53;22.60;63.50
1347;DHT22;667;48.796;9.480;2022-09-09T12:27:30;22.70;64.80
1347;DHT22;667;48.796;9.480;2022-09-09T12:30:12;22.80;63.60
1347;DHT22;667;48.796;9.480;2022-09-09T12:32:39;22.90;63.40
1347;DHT22;667;48.796;9.480;2022-09-09T12:35:12;23.00;62.40
1347;DHT22;667;48.796;9.480;2022-09-09T12:42:45;23.10;60.50
1347;DHT22;667;48.796;9.480;2022-09-09T12:45:17;23.10;60.20
1347;DHT22;667;48.796;9.480;2022-09-09T12:48:07;23.20;60.40
1347;DHT22;667;48.796;9.480;2022-09-09T12:50:38;23.20;59.90
1347;DHT22;667;48.796;9.480;2022-09-09T12:53:25;23.20;60.20
1347;DHT22;667;48.796;9.480;2022-09-09T12:56:06;23.20;60.10
1347;DHT22;667;48.796;9.480;2022-09-09T12:58:35;23.20;60.60
1347;DHT22;667;48.796;9.480;2022-09-09T13:01:02;23.20;59.50
1347;DHT22;667;48.796;9.480;2022-09-09T13:03:32;23.20;59.40
1347;DHT22;667;48.796;9.480;2022-09-09T13:06:10;23.10;58.80
1347;DHT22;667;48.796;9.480;2022-09-09T13:08:37;23.10;58.30
1347;DHT22;667;48.796;9.480;2022-09-09T13:11:07;23.00;58.20
1347;DHT22;667;48.796;9.480;2022-09-09T13:13:42;23.10;58.30
1347;DHT22;667;48.796;9.480;2022-09-09T13:16:29;23.10;58.80
1347;DHT22;667;48.796;9.480;2022-09-09T13:19:01;23.10;59.00
1347;DHT22;667;48.796;9.480;2022-09-09T13:21:38;23.10;58.80
1347;DHT22;667;48.796;9.480;2022-09-09T13:24:32;23.10;59.00
1347;DHT22;667;48.796;9.480;2022-09-09T13:27:00;23.10;59.30
1347;DHT22;667;48.796;9.480;2022-09-09T13:29:31;23.10;59.30
1347;DHT22;667;48.796;9.480;2022-09-09T13:32:16;23.10;59.50
1347;DHT22;667;48.796;9.480;2022-09-09T13:34:51;23.10;59.50
1347;DHT22;667;48.796;9.480;2022-09-09T13:37:36;23.00;59.60
1347;DHT22;667;48.796;9.480;2022-09-09T13:40:03;23.10;59.80
1347;DHT22;667;48.796;9.480;2022-09-09T13:42:33;23.00;59.30
1347;DHT22;667;48.796;9.480;2022-09-09T13:45:00;23.10;58.90
1347;DHT22;667;48.796;9.480;2022-09-09T13:47:32;23.00;57.40
1347;DHT22;667;48.796;9.480;2022-09-09T13:50:20;23.00;56.30
1347;DHT22;667;48.796;9.480;2022-09-09T13:55:17;22.90;53.60
1347;DHT22;667;48.796;9.480;2022-09-09T13:58:00;22.90;54.00
1347;DHT22;667;48.796;9.480;2022-09-09T14:00:28;22.90;54.00
1347;DHT22;667;48.796;9.480;2022-09-09T14:02:54;22.90;53.80
1347;DHT22;667;48.796;9.480;2022-09-09T14:05:23;23.00;53.90
1347;DHT22;667;48.796;9.480;2022-09-09T14:07:49;23.00;54.00
1347;DHT22;667;48.796;9.480;2022-09-09T14:10:15;23.10;53.80
1347;DHT22;667;48.796;9.480;2022-09-09T14:12:41;23.20;49.80
1347;DHT22;667;48.796;9.480;2022-09-09T14:15:09;23.30;50.70
1347;DHT22;667;48.796;9.480;2022-09-09T14:17:35;23.30;51.60
1347;DHT22;667;48.796;9.480;2022-09-09T14:20:05;23.40;52.10
1347;DHT22;667;48.796;9.480;2022-09-09T14:22:35;23.50;51.10
1347;DHT22;667;48.796;9.480;2022-09-09T14:25:01;23.60;50.80
1347;DHT22;667;48.796;9.480;2022-09-09T14:27:27;23.50;50.10
1347;DHT22;667;48.796;9.480;2022-09-09T14:29:52;23.60;50.20
1347;DHT22;667;48.796;9.480;2022-09-09T14:32:18;23.60;50.50
1347;DHT22;667;48.796;9.480;2022-09-09T14:34:44;23.60;50.90
1347;DHT22;667;48.796;9.480;2022-09-09T14:37:11;23.60;51.10
1347;DHT22;667;48.796;9.480;2022-09-09T14:39:36;23.70;51.30
1347;DHT22;667;48.796;9.480;2022-09-09T14:42:02;23.70;51.60
1347;DHT22;667;48.796;9.480;2022-09-09T14:44:28;23.70;50.50
1347;DHT22;667;48.796;9.480;2022-09-09T14:46:53;23.70;49.80
1347;DHT22;667;48.796;9.480;2022-09-09T14:49:19;23.70;48.60
1347;DHT22;667;48.796;9.480;2022-09-09T14:51:45;23.60;48.10
1347;DHT22;667;48.796;9.480;2022-09-09T14:54:11;23.60;48.80
1347;DHT22;667;48.796;9.480;2022-09-09T14:56:37;23.60;48.90
1347;DHT22;667;48.796;9.480;2022-09-09T14:59:03;23.60;49.20
1347;DHT22;667;48.796;9.480;2022-09-09T15:01:30;23.60;49.10
1347;DHT22;667;48.796;9.480;2022-09-09T15:03:58;23.60;49.20
1347;DHT22;667;48.796;9.480;2022-09-09T15:06:25;23.60;49.00
1347;DHT22;667;48.796;9.480;2022-09-09T15:08:52;23.70;49.30
1347;DHT22;667;48.796;9.480;2022-09-09T15:11:19;23.70;48.90
1347;DHT22;667;48.796;9.480;2022-09-09T15:13:46;23.80;49.00
1347;DHT22;667;48.796;9.480;2022-09-09T15:16:17;23.80;49.10
1347;DHT22;667;48.796;9.480;2022-09-09T15:18:45;23.90;49.20
1347;DHT22;667;48.796;9.480;2022-09-09T15:21:16;23.90;49.10
1347;DHT22;667;48.796;9.480;2022-09-09T15:23:42;23.90;48.60
1347;DHT22;667;48.796;9.480;2022-09-09T15:26:09;24.00;47.90
1347;DHT22;667;48.796;9.480;2022-09-09T15:28:36;24.00;47.50
1347;DHT22;667;48.796;9.480;2022-09-09T15:31:12;24.00;46.80
1347;DHT22;667;48.796;9.480;2022-09-09T15:33:39;24.00;46.50
1347;DHT22;667;48.796;9.480;2022-09-09T15:36:22;24.00;45.80
1347;DHT22;667;48.796;9.480;2022-09-09T15:38:48;23.90;45.90
1347;DHT22;667;48.796;9.480;2022-09-09T15:41:14;23.90;46.40
1347;DHT22;667;48.796;9.480;2022-09-09T15:43:44;23.90;46.40
1347;DHT22;667;48.796;9.480;2022-09-09T15:48:43;23.80;46.20
1347;DHT22;667;48.796;9.480;2022-09-09T15:51:10;23.70;46.30
1347;DHT22;667;48.796;9.480;2022-09-09T15:53:37;23.70;46.70
1347;DHT22;667;48.796;9.480;2022-09-09T15:56:05;23.70;46.40
1347;DHT22;667;48.796;9.480;2022-09-09T15:58:32;23.60;46.60
1347;DHT22;667;48.796;9.480;2022-09-09T16:01:04;23.70;47.10
1347;DHT22;667;48.796;9.480;2022-09-09T16:03:37;23.60;47.20
1347;DHT22;667;48.796;9.480;2022-09-09T16:06:04;23.60;47.20
1347;DHT22;667;48.796;9.480;2022-09-09T16:08:38;23.50;47.40
1347;DHT22;667;48.796;9.480;2022-09-09T16:11:10;23.50;47.70
1347;DHT22;667;48.796;9.480;2022-09-09T16:13:36;23.40;47.70
1347;DHT22;667;48.796;9.480;2022-09-09T16:16:03;23.40;48.00
1347;DHT22;667;48.796;9.480;2022-09-09T16:18:36;23.30;48.30
1347;DHT22;667;48.796;9.480;2022-09-09T16:21:03;23.20;48.50
1347;DHT22;667;48.796;9.480;2022-09-09T16:23:31;23.20;48.50
1347;DHT22;667;48.796;9.480;2022-09-09T16:25:56;23.20;48.70
1347;DHT22;667;48.796;9.480;2022-09-09T16:28:22;23.10;48.80
1347;DHT22;667;48.796;9.480;2022-09-09T16:30:48;23.10;48.80
1347;DHT22;667;48.796;9.480;2022-09-09T16:33:14;23.10;49.10
1347;DHT22;667;48.796;9.480;2022-09-09T16:35:42;23.00;48.60
1347;DHT22;667;48.796;9.480;2022-09-09T16:38:08;22.90;48.20
1347;DHT22;667;48.796;9.480;2022-09-09T16:40:37;22.90;48.30
1347;DHT22;667;48.796;9.480;2022-09-09T16:43:04;22.90;48.50
1347;DHT22;667;48.796;9.480;2022-09-09T16:45:31;22.90;48.60
1347;DHT22;667;48.796;9.480;2022-09-09T16:47:58;22.80;48.40
1347;DHT22;667;48.796;9.480;2022-09-09T16:50:24;22.80;48.20
1347;DHT22;667;48.796;9.480;2022-09-09T16:52:51;22.80;47.90
1347;DHT22;667;48.796;9.480;2022-09-09T16:55:17;22.80;48.20
1347;DHT22;667;48.796;9.480;2022-09-09T16:57:43;22.70;48.30
1347;DHT22;667;48.796;9.480;2022-09-09T17:00:09;22.70;48.40
1347;DHT22;667;48.796;9.480;2022-09-09T17:02:34;22.70;48.50
1347;DHT22;667;48.796;9.480;2022-09-09T17:05:00;22.70;48.90
1347;DHT22;667;48.796;9.480;2022-09-09T17:07:26;22.60;49.20
1347;DHT22;667;48.796;9.480;2022-09-09T17:09:52;22.50;49.50
1347;DHT22;667;48.796;9.480;2022-09-09T17:12:18;22.40;49.80
1347;DHT22;667;48.796;9.480;2022-09-09T17:14:43;22.30;50.10
1347;DHT22;667;48.796;9.480;2022-09-09T17:17:10;22.30;50.70
1347;DHT22;667;48.796;9.480;2022-09-09T17:19:36;22.20;50.90
1347;DHT22;667;48.796;9.480;2022-09-09T17:22:02;22.20;51.30
1347;DHT22;667;48.796;9.480;2022-09-09T17:24:27;22.20;51.40
1347;DHT22;667;48.796;9.480;2022-09-09T17:26:54;22.20;51.60
1347;DHT22;667;48.796;9.480;2022-09-09T17:29:21;22.10;51.70
1347;DHT22;667;48.796;9.480;2022-09-09T17:31:47;22.10;52.10
1347;DHT22;667;48.796;9.480;2022-09-09T17:34:12;22.10;52.60
1347;DHT22;667;48.796;9.480;2022-09-09T17:36:38;22.00;52.70
1347;DHT22;667;48.796;9.480;2022-09-09T17:39:05;22.00;52.80
1347;DHT22;667;48.796;9.480;2022-09-09T17:41:33;21.90;52.80
1347;DHT22;667;48.796;9.480;2022-09-09T17:43:59;21.90;52.90
1347;DHT22;667;48.796;9.480;2022-09-09T17:46:26;21.80;53.00
1347;DHT22;667;48.796;9.480;2022-09-09T17:48:56;21.80;53.00
1347;DHT22;667;48.796;9.480;2022-09-09T17:51:24;21.80;53.30
1347;DHT22;667;48.796;9.480;2022-09-09T17:53:54;21.70;53.20
1347;DHT22;667;48.796;9.480;2022-09-09T17:56:21;21.60;53.30
1347;DHT22;667;48.796;9.480;2022-09-09T17:58:48;21.60;53.40
1347;DHT22;667;48.796;9.480;2022-09-09T18:01:17;21.60;53.70
1347;DHT22;667;48.796;9.480;2022-09-09T18:03:44;21.50;53.90
1347;DHT22;667;48.796;9.480;2022-09-09T18:06:13;21.50;54.00
1347;DHT22;667;48.796;9.480;2022-09-09T18:08:41;21.40;54.10
1347;DHT22;667;48.796;9.480;2022-09-09T18:11:10;21.40;54.50
1347;DHT22;667;48.796;9.480;2022-09-09T18:13:36;21.30;55.30
1347;DHT22;667;48.796;9.480;2022-09-09T18:16:06;21.30;56.00
1347;DHT22;667;48.796;9.480;2022-09-09T18:18:33;21.30;56.70
1347;DHT22;667;48.796;9.480;2022-09-09T18:21:07;21.20;57.00
1347;DHT22;667;48.796;9.480;2022-09-09T18:23:41;21.10;57.20
1347;DHT22;667;48.796;9.480;2022-09-09T18:26:13;21.10;57.60
1347;DHT22;667;48.796;9.480;2022-09-09T18:28:41;21.00;57.80
1347;DHT22;667;48.796;9.480;2022-09-09T18:31:12;21.00;58.10
1347;DHT22;667;48.796;9.480;2022-09-09T18:33:40;20.90;58.20
1347;DHT22;667;48.796;9.480;2022-09-09T18:36:10;20.80;58.20
1347;DHT22;667;48.796;9.480;2022-09-09T18:38:36;20.80;58.20
1347;DHT22;667;48.796;9.480;2022-09-09T18:41:17;20.80;58.40
1347;DHT22;667;48.796;9.480;2022-09-09T18:43:43;20.80;58.70
1347;DHT22;667;48.796;9.480;2022-09-09T18:46:10;20.70;59.00
1347;DHT22;667;48.796;9.480;2022-09-09T18:48:37;20.70;59.40
1347;DHT22;667;48.796;9.480;2022-09-09T18:51:08;20.60;59.70
1347;DHT22;667;48.796;9.480;2022-09-09T18:53:35;20.60;60.00
1347;DHT22;667;48.796;9.480;2022-09-09T18:56:05;20.50;60.10
1347;DHT22;667;48.796;9.480;2022-09-09T18:58:32;20.50;60.00